Mossel Bay, South Africa

1:34 PM SAST on August 29, 2014 (GMT +0200)
APRSWXNET Mossel Bay ZA | Change Station
CLOSE
Current Station
Personal Weather Station
Location: Mossel Bay,
Elevation: 636 ft
Nearby Weather Stations

Elev 636 ft 34.20 °S, 22.10 °E | Updated 517 days ago

Rain
Rain
59 °F
Feels Like 59 °F
N
15
Wind Variable Wind from SSW
Gusts mph

Today
High -- | Low -- °F
--% Chance of Precip.
Yesterday
High -- | Low -- °F
Precip. -- in
6:54 AM 6:11 PM
Waxing Crescent, 13% visible
Pressure 30.42 in
Visibility 6.2 miles
Clouds Few 1100 ft
Scattered Clouds 2500 ft
Mostly Cloudy 4000 ft
Dew Point 45 °F
Humidity 56%
Rainfall 0.00 in
Snow Depth Not available.
UV 4 out of 12
Pollen Not available.
Air Quality Not available.
Flu Activity Not available.
METAR FAGG 291100Z 28004KT 240V300 9999 FEW011 SCT025 BKN040 12/08 Q1030

More Conditions Fewer Conditions

Pressure 30.42 in
Visibility 6.2 miles
Clouds Few 1100 ft
Scattered Clouds 2500 ft
Mostly Cloudy 4000 ft
Dew Point 45 °F
Humidity 56%
Rainfall 0.00 in
Snow Depth Not available.
UV 4 out of 12
Pollen Not available.
Air Quality Not available.
Flu Activity Not available.
METAR FAGG 291100Z 28004KT 240V300 9999 FEW011 SCT025 BKN040 12/08 Q1030

More Conditions Fewer Conditions

10-Day Weather Forecast

Almanac

Astronomy

Aug. 29, 2014 Rise Set
Actual Time 6:54 AM SAST 6:11 PM SAST
Civil Twilight 6:29 AM SAST 6:36 PM SAST
Nautical Twilight 5:59 AM SAST 7:05 PM SAST
Astronomical Twilight 5:30 AM SAST 7:34 PM SAST
Moon 8:44 AM SAST 9:50 PM SAST
Length of Visible Light 12h 07m
Length of Day
11h 16m
Tomorrow will be 1m 59s longer.
Waxing Crescent, 13% of the Moon is Illuminated
Today
Waxing Crescent
Sep 2
First Quarter
Sep 8
Full
Sep 15
Last Quarter
Sep 24
New

Yesterday's Extremes

Country Highs Country Lows

Community

WunderPhotos

Upload Photos

1,748,214 photos uploaded!

Nearby

Snow Depth

Not available.

Earthquake Activity

City Distance Mag. Time & Date
No recent earthquake activity has been reported nearby.
Minimum magnitude displayed is 2.5.

Coastal Water Temperatures

Place Temperature
No Stations Reporting

Nearby Weather Stations